sensor_id;sensor_type;location;lat;lon;timestamp;P1;durP1;ratioP1;P2;durP2;ratioP2
33505;SDS011;19843;51.040;13.782;2023-04-24T00:00:43;4.40;;;4.00;;
33505;SDS011;19843;51.040;13.782;2023-04-24T00:03:11;4.78;;;4.35;;
33505;SDS011;19843;51.040;13.782;2023-04-24T00:05:39;5.00;;;4.50;;
33505;SDS011;19843;51.040;13.782;2023-04-24T00:08:07;4.70;;;4.25;;
33505;SDS011;19843;51.040;13.782;2023-04-24T00:10:36;5.90;;;4.80;;
33505;SDS011;19843;51.040;13.782;2023-04-24T00:13:03;5.75;;;5.10;;
33505;SDS011;19843;51.040;13.782;2023-04-24T00:15:31;4.53;;;4.07;;
33505;SDS011;19843;51.040;13.782;2023-04-24T00:17:59;4.75;;;4.35;;
33505;SDS011;19843;51.040;13.782;2023-04-24T00:20:27;4.65;;;4.25;;
33505;SDS011;19843;51.040;13.782;2023-04-24T00:22:55;4.50;;;4.13;;
33505;SDS011;19843;51.040;13.782;2023-04-24T00:25:22;4.82;;;4.43;;
33505;SDS011;19843;51.040;13.782;2023-04-24T00:27:51;5.47;;;4.90;;
33505;SDS011;19843;51.040;13.782;2023-04-24T00:30:19;5.53;;;5.03;;
33505;SDS011;19843;51.040;13.782;2023-04-24T00:32:46;5.03;;;4.57;;
33505;SDS011;19843;51.040;13.782;2023-04-24T00:35:14;5.63;;;5.00;;
33505;SDS011;19843;51.040;13.782;2023-04-24T00:37:41;5.65;;;4.70;;
33505;SDS011;19843;51.040;13.782;2023-04-24T00:40:09;4.88;;;4.40;;
33505;SDS011;19843;51.040;13.782;2023-04-24T00:42:37;4.90;;;4.40;;
33505;SDS011;19843;51.040;13.782;2023-04-24T00:45:08;6.28;;;4.53;;
33505;SDS011;19843;51.040;13.782;2023-04-24T00:47:36;4.70;;;4.30;;
33505;SDS011;19843;51.040;13.782;2023-04-24T00:50:05;5.43;;;4.93;;
33505;SDS011;19843;51.040;13.782;2023-04-24T00:52:33;5.28;;;4.78;;
33505;SDS011;19843;51.040;13.782;2023-04-24T00:55:02;5.32;;;4.85;;
33505;SDS011;19843;51.040;13.782;2023-04-24T00:57:31;5.10;;;4.50;;
33505;SDS011;19843;51.040;13.782;2023-04-24T00:59:59;5.90;;;5.30;;
33505;SDS011;19843;51.040;13.782;2023-04-24T01:02:27;5.90;;;4.70;;
33505;SDS011;19843;51.040;13.782;2023-04-24T01:04:55;5.45;;;4.90;;
33505;SDS011;19843;51.040;13.782;2023-04-24T01:07:23;5.95;;;5.03;;
33505;SDS011;19843;51.040;13.782;2023-04-24T01:09:51;6.40;;;5.53;;
33505;SDS011;19843;51.040;13.782;2023-04-24T01:12:19;5.30;;;4.80;;
33505;SDS011;19843;51.040;13.782;2023-04-24T01:14:46;6.13;;;4.72;;
33505;SDS011;19843;51.040;13.782;2023-04-24T01:17:14;5.32;;;4.82;;
33505;SDS011;19843;51.040;13.782;2023-04-24T01:19:43;5.68;;;4.85;;
33505;SDS011;19843;51.040;13.782;2023-04-24T01:22:13;4.90;;;4.50;;
33505;SDS011;19843;51.040;13.782;2023-04-24T01:24:41;6.40;;;5.22;;
33505;SDS011;19843;51.040;13.782;2023-04-24T01:27:09;6.78;;;4.88;;
33505;SDS011;19843;51.040;13.782;2023-04-24T01:29:37;5.30;;;4.80;;
33505;SDS011;19843;51.040;13.782;2023-04-24T01:32:05;6.32;;;5.72;;
33505;SDS011;19843;51.040;13.782;2023-04-24T01:34:33;7.22;;;5.10;;
33505;SDS011;19843;51.040;13.782;2023-04-24T01:37:01;6.05;;;4.90;;
33505;SDS011;19843;51.040;13.782;2023-04-24T01:39:30;8.45;;;5.18;;
33505;SDS011;19843;51.040;13.782;2023-04-24T01:41:57;6.47;;;5.00;;
33505;SDS011;19843;51.040;13.782;2023-04-24T01:44:25;5.38;;;4.88;;
33505;SDS011;19843;51.040;13.782;2023-04-24T01:46:53;4.82;;;4.43;;
33505;SDS011;19843;51.040;13.782;2023-04-24T01:49:22;5.80;;;5.20;;
33505;SDS011;19843;51.040;13.782;2023-04-24T01:51:49;5.68;;;5.18;;
33505;SDS011;19843;51.040;13.782;2023-04-24T01:54:17;5.38;;;4.80;;
33505;SDS011;19843;51.040;13.782;2023-04-24T01:56:45;6.03;;;5.10;;
33505;SDS011;19843;51.040;13.782;2023-04-24T01:59:13;5.30;;;4.80;;
33505;SDS011;19843;51.040;13.782;2023-04-24T02:01:43;5.13;;;4.63;;
33505;SDS011;19843;51.040;13.782;2023-04-24T02:04:11;5.15;;;4.65;;
33505;SDS011;19843;51.040;13.782;2023-04-24T02:06:39;5.28;;;4.70;;
33505;SDS011;19843;51.040;13.782;2023-04-24T02:09:07;6.07;;;5.57;;
33505;SDS011;19843;51.040;13.782;2023-04-24T02:11:34;5.50;;;5.00;;
33505;SDS011;19843;51.040;13.782;2023-04-24T02:14:03;5.78;;;4.95;;
33505;SDS011;19843;51.040;13.782;2023-04-24T02:16:31;6.78;;;5.18;;
33505;SDS011;19843;51.040;13.782;2023-04-24T02:18:59;5.65;;;4.95;;
33505;SDS011;19843;51.040;13.782;2023-04-24T02:21:27;5.63;;;5.13;;
33505;SDS011;19843;51.040;13.782;2023-04-24T02:23:54;7.40;;;5.63;;
33505;SDS011;19843;51.040;13.782;2023-04-24T02:26:22;5.18;;;4.70;;
33505;SDS011;19843;51.040;13.782;2023-04-24T02:28:50;6.55;;;5.63;;
33505;SDS011;19843;51.040;13.782;2023-04-24T02:31:18;5.82;;;5.20;;
33505;SDS011;19843;51.040;13.782;2023-04-24T02:33:46;6.00;;;5.40;;
33505;SDS011;19843;51.040;13.782;2023-04-24T02:36:13;6.32;;;5.72;;
33505;SDS011;19843;51.040;13.782;2023-04-24T02:38:41;6.57;;;5.85;;
33505;SDS011;19843;51.040;13.782;2023-04-24T02:41:08;6.00;;;5.50;;
33505;SDS011;19843;51.040;13.782;2023-04-24T02:43:36;6.30;;;5.05;;
33505;SDS011;19843;51.040;13.782;2023-04-24T02:46:03;9.45;;;5.70;;
33505;SDS011;19843;51.040;13.782;2023-04-24T02:48:32;6.93;;;6.22;;
33505;SDS011;19843;51.040;13.782;2023-04-24T02:50:59;6.15;;;5.55;;
33505;SDS011;19843;51.040;13.782;2023-04-24T02:53:27;5.82;;;5.18;;
33505;SDS011;19843;51.040;13.782;2023-04-24T02:55:55;7.90;;;5.43;;
33505;SDS011;19843;51.040;13.782;2023-04-24T02:58:23;6.47;;;5.88;;
33505;SDS011;19843;51.040;13.782;2023-04-24T03:00:52;6.20;;;5.60;;
33505;SDS011;19843;51.040;13.782;2023-04-24T03:03:20;7.45;;;5.53;;
33505;SDS011;19843;51.040;13.782;2023-04-24T03:05:49;6.15;;;5.55;;
33505;SDS011;19843;51.040;13.782;2023-04-24T03:08:17;6.22;;;5.63;;
33505;SDS011;19843;51.040;13.782;2023-04-24T03:10:44;7.55;;;6.25;;
33505;SDS011;19843;51.040;13.782;2023-04-24T03:13:13;6.25;;;5.65;;
33505;SDS011;19843;51.040;13.782;2023-04-24T03:15:42;6.18;;;5.57;;
33505;SDS011;19843;51.040;13.782;2023-04-24T03:18:09;6.38;;;5.75;;
33505;SDS011;19843;51.040;13.782;2023-04-24T03:20:37;6.43;;;5.50;;
33505;SDS011;19843;51.040;13.782;2023-04-24T03:23:05;7.20;;;5.80;;
33505;SDS011;19843;51.040;13.782;2023-04-24T03:25:33;7.90;;;6.25;;
33505;SDS011;19843;51.040;13.782;2023-04-24T03:28:00;6.20;;;5.70;;
33505;SDS011;19843;51.040;13.782;2023-04-24T03:30:28;7.28;;;6.57;;
33505;SDS011;19843;51.040;13.782;2023-04-24T03:32:55;6.68;;;6.03;;
33505;SDS011;19843;51.040;13.782;2023-04-24T03:35:23;7.43;;;6.55;;
33505;SDS011;19843;51.040;13.782;2023-04-24T03:37:50;8.25;;;6.32;;
33505;SDS011;19843;51.040;13.782;2023-04-24T03:40:19;8.48;;;5.95;;
33505;SDS011;19843;51.040;13.782;2023-04-24T03:42:47;7.28;;;6.00;;
33505;SDS011;19843;51.040;13.782;2023-04-24T03:45:14;6.93;;;6.22;;
33505;SDS011;19843;51.040;13.782;2023-04-24T03:47:41;6.93;;;6.25;;
33505;SDS011;19843;51.040;13.782;2023-04-24T03:50:09;6.40;;;5.90;;
33505;SDS011;19843;51.040;13.782;2023-04-24T03:52:38;7.15;;;6.45;;
33505;SDS011;19843;51.040;13.782;2023-04-24T03:55:06;7.55;;;6.47;;
33505;SDS011;19843;51.040;13.782;2023-04-24T03:57:35;7.30;;;6.55;;
33505;SDS011;19843;51.040;13.782;2023-04-24T04:00:03;8.70;;;7.03;;
33505;SDS011;19843;51.040;13.782;2023-04-24T04:02:32;8.75;;;6.10;;
33505;SDS011;19843;51.040;13.782;2023-04-24T04:04:59;6.88;;;6.20;;
33505;SDS011;19843;51.040;13.782;2023-04-24T04:07:28;6.57;;;5.95;;
33505;SDS011;19843;51.040;13.782;2023-04-24T04:09:56;8.77;;;6.22;;
33505;SDS011;19843;51.040;13.782;2023-04-24T04:12:23;6.55;;;5.95;;
33505;SDS011;19843;51.040;13.782;2023-04-24T04:14:52;7.03;;;5.97;;
33505;SDS011;19843;51.040;13.782;2023-04-24T04:17:19;7.00;;;5.97;;
33505;SDS011;19843;51.040;13.782;2023-04-24T04:19:46;7.53;;;6.38;;
33505;SDS011;19843;51.040;13.782;2023-04-24T04:22:14;8.43;;;5.65;;
33505;SDS011;19843;51.040;13.782;2023-04-24T04:24:41;8.95;;;6.28;;
33505;SDS011;19843;51.040;13.782;2023-04-24T04:27:09;7.10;;;5.85;;
33505;SDS011;19843;51.040;13.782;2023-04-24T04:29:37;8.02;;;5.93;;
33505;SDS011;19843;51.040;13.782;2023-04-24T04:32:07;8.30;;;6.07;;
33505;SDS011;19843;51.040;13.782;2023-04-24T04:34:35;7.03;;;5.57;;
33505;SDS011;19843;51.040;13.782;2023-04-24T04:37:03;8.13;;;5.57;;
33505;SDS011;19843;51.040;13.782;2023-04-24T04:39:31;10.57;;;5.75;;
33505;SDS011;19843;51.040;13.782;2023-04-24T04:41:59;5.97;;;5.30;;
33505;SDS011;19843;51.040;13.782;2023-04-24T04:44:27;6.00;;;5.40;;
33505;SDS011;19843;51.040;13.782;2023-04-24T04:46:55;5.65;;;5.10;;
33505;SDS011;19843;51.040;13.782;2023-04-24T04:49:26;5.47;;;4.97;;
33505;SDS011;19843;51.040;13.782;2023-04-24T04:51:54;5.00;;;4.50;;
33505;SDS011;19843;51.040;13.782;2023-04-24T04:54:22;5.43;;;4.93;;
33505;SDS011;19843;51.040;13.782;2023-04-24T04:56:50;6.60;;;5.18;;
33505;SDS011;19843;51.040;13.782;2023-04-24T04:59:17;7.28;;;4.20;;
33505;SDS011;19843;51.040;13.782;2023-04-24T05:01:45;5.25;;;3.85;;
33505;SDS011;19843;51.040;13.782;2023-04-24T05:04:12;3.70;;;3.40;;
33505;SDS011;19843;51.040;13.782;2023-04-24T05:06:41;3.28;;;2.97;;
33505;SDS011;19843;51.040;13.782;2023-04-24T05:09:09;4.53;;;2.75;;
33505;SDS011;19843;51.040;13.782;2023-04-24T05:11:36;2.88;;;2.58;;
33505;SDS011;19843;51.040;13.782;2023-04-24T05:14:03;5.70;;;3.67;;
33505;SDS011;19843;51.040;13.782;2023-04-24T05:16:31;3.70;;;3.10;;
33505;SDS011;19843;51.040;13.782;2023-04-24T05:18:58;5.18;;;3.45;;
33505;SDS011;19843;51.040;13.782;2023-04-24T05:21:26;4.90;;;3.13;;
33505;SDS011;19843;51.040;13.782;2023-04-24T05:23:55;4.32;;;2.90;;
33505;SDS011;19843;51.040;13.782;2023-04-24T05:26:22;3.13;;;2.55;;
33505;SDS011;19843;51.040;13.782;2023-04-24T05:28:50;3.92;;;2.70;;
33505;SDS011;19843;51.040;13.782;2023-04-24T05:31:17;2.72;;;2.25;;
33505;SDS011;19843;51.040;13.782;2023-04-24T05:33:45;3.95;;;2.47;;
33505;SDS011;19843;51.040;13.782;2023-04-24T05:36:12;3.90;;;2.50;;
33505;SDS011;19843;51.040;13.782;2023-04-24T05:38:39;4.07;;;2.67;;
33505;SDS011;19843;51.040;13.782;2023-04-24T05:41:08;6.57;;;3.30;;
33505;SDS011;19843;51.040;13.782;2023-04-24T05:43:36;6.22;;;2.63;;
33505;SDS011;19843;51.040;13.782;2023-04-24T05:46:03;3.25;;;2.45;;
33505;SDS011;19843;51.040;13.782;2023-04-24T05:48:31;4.13;;;2.30;;
33505;SDS011;19843;51.040;13.782;2023-04-24T05:50:58;3.25;;;2.30;;
33505;SDS011;19843;51.040;13.782;2023-04-24T05:53:25;3.15;;;2.28;;
33505;SDS011;19843;51.040;13.782;2023-04-24T05:55:53;4.28;;;2.65;;
33505;SDS011;19843;51.040;13.782;2023-04-24T05:58:21;4.30;;;2.33;;
33505;SDS011;19843;51.040;13.782;2023-04-24T06:00:49;4.28;;;2.25;;
33505;SDS011;19843;51.040;13.782;2023-04-24T06:03:16;2.63;;;2.28;;
33505;SDS011;19843;51.040;13.782;2023-04-24T06:05:44;2.88;;;2.10;;
33505;SDS011;19843;51.040;13.782;2023-04-24T06:08:11;2.42;;;1.55;;
33505;SDS011;19843;51.040;13.782;2023-04-24T06:10:39;3.58;;;1.48;;
33505;SDS011;19843;51.040;13.782;2023-04-24T06:13:07;3.25;;;1.42;;
33505;SDS011;19843;51.040;13.782;2023-04-24T06:15:36;2.47;;;1.17;;
33505;SDS011;19843;51.040;13.782;2023-04-24T06:18:04;1.95;;;0.90;;
33505;SDS011;19843;51.040;13.782;2023-04-24T06:20:31;1.92;;;1.10;;
33505;SDS011;19843;51.040;13.782;2023-04-24T06:22:59;1.15;;;1.00;;
33505;SDS011;19843;51.040;13.782;2023-04-24T06:25:26;1.83;;;1.20;;
33505;SDS011;19843;51.040;13.782;2023-04-24T06:27:55;1.20;;;1.10;;
33505;SDS011;19843;51.040;13.782;2023-04-24T06:30:22;2.95;;;1.00;;
33505;SDS011;19843;51.040;13.782;2023-04-24T06:32:52;2.03;;;1.10;;
33505;SDS011;19843;51.040;13.782;2023-04-24T06:35:21;4.22;;;1.27;;
33505;SDS011;19843;51.040;13.782;2023-04-24T06:37:48;2.78;;;1.30;;
33505;SDS011;19843;51.040;13.782;2023-04-24T06:40:16;1.60;;;1.10;;
33505;SDS011;19843;51.040;13.782;2023-04-24T06:42:44;1.92;;;1.23;;
33505;SDS011;19843;51.040;13.782;2023-04-24T06:45:12;1.52;;;1.00;;
33505;SDS011;19843;51.040;13.782;2023-04-24T06:47:39;1.67;;;1.02;;
33505;SDS011;19843;51.040;13.782;2023-04-24T06:50:08;1.13;;;1.00;;
33505;SDS011;19843;51.040;13.782;2023-04-24T06:52:37;2.00;;;1.00;;
33505;SDS011;19843;51.040;13.782;2023-04-24T06:55:05;2.78;;;1.00;;
33505;SDS011;19843;51.040;13.782;2023-04-24T06:57:33;1.63;;;0.93;;
33505;SDS011;19843;51.040;13.782;2023-04-24T07:00:01;1.55;;;1.23;;
33505;SDS011;19843;51.040;13.782;2023-04-24T07:02:29;3.25;;;1.08;;
33505;SDS011;19843;51.040;13.782;2023-04-24T07:04:57;1.27;;;1.10;;
33505;SDS011;19843;51.040;13.782;2023-04-24T07:07:25;1.92;;;1.08;;
33505;SDS011;19843;51.040;13.782;2023-04-24T07:09:53;2.65;;;1.00;;
33505;SDS011;19843;51.040;13.782;2023-04-24T07:12:22;1.55;;;1.10;;
33505;SDS011;19843;51.040;13.782;2023-04-24T07:14:50;3.13;;;0.98;;
33505;SDS011;19843;51.040;13.782;2023-04-24T07:17:17;1.00;;;0.90;;
33505;SDS011;19843;51.040;13.782;2023-04-24T07:19:45;1.35;;;1.00;;
33505;SDS011;19843;51.040;13.782;2023-04-24T07:22:12;1.00;;;0.90;;
33505;SDS011;19843;51.040;13.782;2023-04-24T07:24:44;3.38;;;1.00;;
33505;SDS011;19843;51.040;13.782;2023-04-24T07:27:12;2.58;;;1.00;;
33505;SDS011;19843;51.040;13.782;2023-04-24T07:29:41;1.45;;;1.02;;
33505;SDS011;19843;51.040;13.782;2023-04-24T07:32:09;3.28;;;0.95;;
33505;SDS011;19843;51.040;13.782;2023-04-24T07:34:37;1.23;;;0.80;;
33505;SDS011;19843;51.040;13.782;2023-04-24T07:37:04;2.08;;;0.90;;
33505;SDS011;19843;51.040;13.782;2023-04-24T07:39:32;1.30;;;0.73;;
33505;SDS011;19843;51.040;13.782;2023-04-24T07:42:00;1.08;;;0.82;;
33505;SDS011;19843;51.040;13.782;2023-04-24T07:44:28;0.77;;;0.70;;
33505;SDS011;19843;51.040;13.782;2023-04-24T07:46:56;2.45;;;1.05;;
33505;SDS011;19843;51.040;13.782;2023-04-24T07:49:23;1.35;;;0.80;;
33505;SDS011;19843;51.040;13.782;2023-04-24T07:51:51;2.83;;;1.00;;
33505;SDS011;19843;51.040;13.782;2023-04-24T07:54:18;0.95;;;0.90;;
33505;SDS011;19843;51.040;13.782;2023-04-24T07:56:46;1.23;;;0.80;;
33505;SDS011;19843;51.040;13.782;2023-04-24T07:59:14;1.27;;;0.90;;
33505;SDS011;19843;51.040;13.782;2023-04-24T08:01:42;1.63;;;0.90;;
33505;SDS011;19843;51.040;13.782;2023-04-24T08:04:09;1.42;;;0.80;;
33505;SDS011;19843;51.040;13.782;2023-04-24T08:06:37;1.80;;;1.05;;
33505;SDS011;19843;51.040;13.782;2023-04-24T08:09:04;1.10;;;1.00;;
33505;SDS011;19843;51.040;13.782;2023-04-24T08:11:32;1.45;;;0.82;;
33505;SDS011;19843;51.040;13.782;2023-04-24T08:13:59;1.30;;;0.85;;
33505;SDS011;19843;51.040;13.782;2023-04-24T08:16:28;1.02;;;0.90;;
33505;SDS011;19843;51.040;13.782;2023-04-24T08:18:56;0.60;;;0.60;;
33505;SDS011;19843;51.040;13.782;2023-04-24T08:21:23;1.00;;;0.80;;
33505;SDS011;19843;51.040;13.782;2023-04-24T08:23:52;2.30;;;0.85;;
33505;SDS011;19843;51.040;13.782;2023-04-24T08:26:20;1.38;;;0.90;;
33505;SDS011;19843;51.040;13.782;2023-04-24T08:28:47;1.80;;;0.90;;
33505;SDS011;19843;51.040;13.782;2023-04-24T08:31:14;3.72;;;1.08;;
33505;SDS011;19843;51.040;13.782;2023-04-24T08:33:43;1.38;;;0.95;;
33505;SDS011;19843;51.040;13.782;2023-04-24T08:36:11;2.35;;;0.88;;
33505;SDS011;19843;51.040;13.782;2023-04-24T08:38:39;1.60;;;1.10;;
33505;SDS011;19843;51.040;13.782;2023-04-24T08:41:08;0.82;;;0.82;;
33505;SDS011;19843;51.040;13.782;2023-04-24T08:43:36;1.30;;;0.60;;
33505;SDS011;19843;51.040;13.782;2023-04-24T08:46:04;1.75;;;0.75;;
33505;SDS011;19843;51.040;13.782;2023-04-24T08:48:37;0.73;;;0.60;;
33505;SDS011;19843;51.040;13.782;2023-04-24T08:51:07;1.13;;;0.85;;
33505;SDS011;19843;51.040;13.782;2023-04-24T08:53:35;1.25;;;0.70;;
33505;SDS011;19843;51.040;13.782;2023-04-24T08:56:03;0.80;;;0.80;;
33505;SDS011;19843;51.040;13.782;2023-04-24T08:58:31;1.85;;;0.88;;
33505;SDS011;19843;51.040;13.782;2023-04-24T09:00:58;1.70;;;0.90;;
33505;SDS011;19843;51.040;13.782;2023-04-24T09:03:27;1.27;;;0.80;;
33505;SDS011;19843;51.040;13.782;2023-04-24T09:05:55;1.48;;;0.82;;
33505;SDS011;19843;51.040;13.782;2023-04-24T09:08:26;1.10;;;0.60;;
33505;SDS011;19843;51.040;13.782;2023-04-24T09:10:55;1.08;;;0.80;;
33505;SDS011;19843;51.040;13.782;2023-04-24T09:13:24;2.88;;;1.20;;
33505;SDS011;19843;51.040;13.782;2023-04-24T09:15:51;2.08;;;1.02;;
33505;SDS011;19843;51.040;13.782;2023-04-24T09:18:20;2.60;;;0.70;;
33505;SDS011;19843;51.040;13.782;2023-04-24T09:20:57;1.02;;;0.70;;
33505;SDS011;19843;51.040;13.782;2023-04-24T09:23:26;3.22;;;0.90;;
33505;SDS011;19843;51.040;13.782;2023-04-24T09:25:55;2.05;;;0.80;;
33505;SDS011;19843;51.040;13.782;2023-04-24T09:28:30;1.73;;;1.02;;
33505;SDS011;19843;51.040;13.782;2023-04-24T09:31:02;1.63;;;0.70;;
33505;SDS011;19843;51.040;13.782;2023-04-24T09:33:30;1.63;;;0.90;;
33505;SDS011;19843;51.040;13.782;2023-04-24T09:35:58;0.90;;;0.90;;
33505;SDS011;19843;51.040;13.782;2023-04-24T09:38:33;1.42;;;0.75;;
33505;SDS011;19843;51.040;13.782;2023-04-24T09:41:03;1.15;;;0.80;;
33505;SDS011;19843;51.040;13.782;2023-04-24T09:43:32;1.50;;;0.75;;
33505;SDS011;19843;51.040;13.782;2023-04-24T09:46:05;4.78;;;1.00;;
33505;SDS011;19843;51.040;13.782;2023-04-24T09:48:35;0.75;;;0.70;;
33505;SDS011;19843;51.040;13.782;2023-04-24T09:51:04;1.20;;;0.90;;
33505;SDS011;19843;51.040;13.782;2023-04-24T09:53:38;1.95;;;0.90;;
33505;SDS011;19843;51.040;13.782;2023-04-24T09:56:07;1.98;;;1.35;;
33505;SDS011;19843;51.040;13.782;2023-04-24T09:58:35;1.23;;;0.80;;
33505;SDS011;19843;51.040;13.782;2023-04-24T10:01:03;1.98;;;0.80;;
33505;SDS011;19843;51.040;13.782;2023-04-24T10:03:31;2.28;;;0.70;;
33505;SDS011;19843;51.040;13.782;2023-04-24T10:05:59;1.52;;;0.63;;
33505;SDS011;19843;51.040;13.782;2023-04-24T10:08:29;2.35;;;0.75;;
33505;SDS011;19843;51.040;13.782;2023-04-24T10:11:01;1.00;;;0.77;;
33505;SDS011;19843;51.040;13.782;2023-04-24T10:13:29;1.17;;;0.60;;
33505;SDS011;19843;51.040;13.782;2023-04-24T10:15:57;1.75;;;0.70;;
33505;SDS011;19843;51.040;13.782;2023-04-24T10:18:26;1.35;;;0.70;;
33505;SDS011;19843;51.040;13.782;2023-04-24T10:20:54;1.58;;;0.63;;
33505;SDS011;19843;51.040;13.782;2023-04-24T10:23:22;0.82;;;0.70;;
33505;SDS011;19843;51.040;13.782;2023-04-24T10:25:50;1.88;;;0.77;;
33505;SDS011;19843;51.040;13.782;2023-04-24T10:28:19;3.58;;;0.90;;
33505;SDS011;19843;51.040;13.782;2023-04-24T10:30:47;0.80;;;0.70;;
33505;SDS011;19843;51.040;13.782;2023-04-24T10:33:16;1.38;;;0.80;;
33505;SDS011;19843;51.040;13.782;2023-04-24T10:35:45;1.88;;;1.05;;
33505;SDS011;19843;51.040;13.782;2023-04-24T10:38:16;1.10;;;0.70;;
33505;SDS011;19843;51.040;13.782;2023-04-24T10:40:50;1.45;;;0.95;;
33505;SDS011;19843;51.040;13.782;2023-04-24T10:43:17;0.70;;;0.70;;
33505;SDS011;19843;51.040;13.782;2023-04-24T10:45:59;0.85;;;0.75;;
33505;SDS011;19843;51.040;13.782;2023-04-24T10:48:28;1.00;;;0.80;;
33505;SDS011;19843;51.040;13.782;2023-04-24T10:50:56;1.20;;;0.70;;
33505;SDS011;19843;51.040;13.782;2023-04-24T10:53:24;1.45;;;0.85;;
33505;SDS011;19843;51.040;13.782;2023-04-24T10:55:57;1.20;;;0.90;;
33505;SDS011;19843;51.040;13.782;2023-04-24T10:58:36;0.68;;;0.68;;
33505;SDS011;19843;51.040;13.782;2023-04-24T11:01:06;2.33;;;0.90;;
33505;SDS011;19843;51.040;13.782;2023-04-24T11:03:34;1.40;;;1.00;;
33505;SDS011;19843;51.040;13.782;2023-04-24T11:06:04;1.83;;;0.75;;
33505;SDS011;19843;51.040;13.782;2023-04-24T11:08:38;1.23;;;0.90;;
33505;SDS011;19843;51.040;13.782;2023-04-24T11:11:09;1.10;;;0.90;;
33505;SDS011;19843;51.040;13.782;2023-04-24T11:16:31;1.38;;;0.70;;
33505;SDS011;19843;51.040;13.782;2023-04-24T11:19:00;2.42;;;1.00;;
33505;SDS011;19843;51.040;13.782;2023-04-24T11:21:38;1.42;;;0.80;;
33505;SDS011;19843;51.040;13.782;2023-04-24T11:24:23;0.95;;;0.70;;
33505;SDS011;19843;51.040;13.782;2023-04-24T11:26:53;1.90;;;0.70;;
33505;SDS011;19843;51.040;13.782;2023-04-24T11:29:22;1.83;;;0.98;;
33505;SDS011;19843;51.040;13.782;2023-04-24T11:31:51;2.13;;;1.02;;
33505;SDS011;19843;51.040;13.782;2023-04-24T11:34:18;0.80;;;0.75;;
33505;SDS011;19843;51.040;13.782;2023-04-24T11:36:46;0.85;;;0.85;;
33505;SDS011;19843;51.040;13.782;2023-04-24T11:39:14;0.95;;;0.77;;
33505;SDS011;19843;51.040;13.782;2023-04-24T11:41:42;5.95;;;1.15;;
33505;SDS011;19843;51.040;13.782;2023-04-24T11:44:09;1.45;;;0.95;;
33505;SDS011;19843;51.040;13.782;2023-04-24T11:46:39;1.15;;;1.05;;
33505;SDS011;19843;51.040;13.782;2023-04-24T11:49:07;0.65;;;0.65;;
33505;SDS011;19843;51.040;13.782;2023-04-24T11:51:34;2.38;;;1.10;;
33505;SDS011;19843;51.040;13.782;2023-04-24T11:54:18;2.17;;;1.08;;
33505;SDS011;19843;51.040;13.782;2023-04-24T11:56:45;2.67;;;1.00;;
33505;SDS011;19843;51.040;13.782;2023-04-24T11:59:13;2.88;;;1.00;;
33505;SDS011;19843;51.040;13.782;2023-04-24T12:01:45;1.33;;;0.80;;
33505;SDS011;19843;51.040;13.782;2023-04-24T12:04:13;0.73;;;0.73;;
33505;SDS011;19843;51.040;13.782;2023-04-24T12:09:27;1.13;;;0.90;;
33505;SDS011;19843;51.040;13.782;2023-04-24T12:11:55;0.90;;;0.63;;
33505;SDS011;19843;51.040;13.782;2023-04-24T12:14:23;1.48;;;0.70;;
33505;SDS011;19843;51.040;13.782;2023-04-24T12:16:52;1.08;;;0.82;;
33505;SDS011;19843;51.040;13.782;2023-04-24T12:19:20;3.22;;;1.10;;
33505;SDS011;19843;51.040;13.782;2023-04-24T12:21:58;1.23;;;0.80;;
33505;SDS011;19843;51.040;13.782;2023-04-24T12:24:27;2.13;;;0.80;;
33505;SDS011;19843;51.040;13.782;2023-04-24T12:26:54;2.90;;;1.00;;
33505;SDS011;19843;51.040;13.782;2023-04-24T12:29:22;1.80;;;1.00;;
33505;SDS011;19843;51.040;13.782;2023-04-24T12:31:52;3.38;;;0.98;;
33505;SDS011;19843;51.040;13.782;2023-04-24T12:34:20;1.42;;;0.80;;
33505;SDS011;19843;51.040;13.782;2023-04-24T12:36:48;2.05;;;0.90;;
33505;SDS011;19843;51.040;13.782;2023-04-24T12:39:15;1.42;;;1.00;;
33505;SDS011;19843;51.040;13.782;2023-04-24T12:41:50;2.55;;;0.90;;
33505;SDS011;19843;51.040;13.782;2023-04-24T12:44:28;1.48;;;1.00;;
33505;SDS011;19843;51.040;13.782;2023-04-24T12:46:57;1.38;;;1.20;;
33505;SDS011;19843;51.040;13.782;2023-04-24T12:49:25;1.25;;;1.00;;
33505;SDS011;19843;51.040;13.782;2023-04-24T12:51:52;2.05;;;1.30;;
33505;SDS011;19843;51.040;13.782;2023-04-24T12:54:20;1.33;;;0.82;;
33505;SDS011;19843;51.040;13.782;2023-04-24T12:56:48;6.18;;;1.10;;
33505;SDS011;19843;51.040;13.782;2023-04-24T12:59:15;4.07;;;1.20;;
33505;SDS011;19843;51.040;13.782;2023-04-24T13:01:43;2.72;;;1.20;;
33505;SDS011;19843;51.040;13.782;2023-04-24T13:04:12;1.15;;;1.00;;
33505;SDS011;19843;51.040;13.782;2023-04-24T13:06:40;1.20;;;1.10;;
33505;SDS011;19843;51.040;13.782;2023-04-24T13:09:07;1.20;;;1.15;;
33505;SDS011;19843;51.040;13.782;2023-04-24T13:11:35;1.70;;;1.20;;
33505;SDS011;19843;51.040;13.782;2023-04-24T13:14:03;3.13;;;0.85;;
33505;SDS011;19843;51.040;13.782;2023-04-24T13:16:30;1.30;;;1.00;;
33505;SDS011;19843;51.040;13.782;2023-04-24T13:18:58;3.45;;;1.20;;
33505;SDS011;19843;51.040;13.782;2023-04-24T13:21:26;1.08;;;0.90;;
33505;SDS011;19843;51.040;13.782;2023-04-24T13:23:54;1.75;;;1.00;;
33505;SDS011;19843;51.040;13.782;2023-04-24T13:26:22;1.10;;;1.00;;
33505;SDS011;19843;51.040;13.782;2023-04-24T13:28:49;1.92;;;1.00;;
33505;SDS011;19843;51.040;13.782;2023-04-24T13:31:17;1.98;;;1.10;;
33505;SDS011;19843;51.040;13.782;2023-04-24T13:33:44;1.25;;;1.00;;
33505;SDS011;19843;51.040;13.782;2023-04-24T13:36:12;2.85;;;1.27;;
33505;SDS011;19843;51.040;13.782;2023-04-24T13:38:40;3.65;;;1.20;;
33505;SDS011;19843;51.040;13.782;2023-04-24T13:41:08;1.13;;;0.98;;
33505;SDS011;19843;51.040;13.782;2023-04-24T13:43:35;2.05;;;1.25;;
33505;SDS011;19843;51.040;13.782;2023-04-24T13:46:03;3.78;;;1.23;;
33505;SDS011;19843;51.040;13.782;2023-04-24T13:48:31;1.33;;;1.00;;
33505;SDS011;19843;51.040;13.782;2023-04-24T13:50:58;1.17;;;1.08;;
33505;SDS011;19843;51.040;13.782;2023-04-24T13:53:26;1.73;;;1.17;;
33505;SDS011;19843;51.040;13.782;2023-04-24T13:55:55;1.98;;;1.00;;
33505;SDS011;19843;51.040;13.782;2023-04-24T13:58:22;4.78;;;1.10;;
33505;SDS011;19843;51.040;13.782;2023-04-24T14:00:49;1.15;;;1.00;;
33505;SDS011;19843;51.040;13.782;2023-04-24T14:03:17;2.35;;;1.20;;
33505;SDS011;19843;51.040;13.782;2023-04-24T14:05:45;1.50;;;1.17;;
33505;SDS011;19843;51.040;13.782;2023-04-24T14:08:12;1.50;;;1.15;;
33505;SDS011;19843;51.040;13.782;2023-04-24T14:10:39;1.67;;;1.20;;
33505;SDS011;19843;51.040;13.782;2023-04-24T14:13:08;1.55;;;1.20;;
33505;SDS011;19843;51.040;13.782;2023-04-24T14:15:36;1.30;;;1.20;;
33505;SDS011;19843;51.040;13.782;2023-04-24T14:18:03;5.18;;;1.10;;
33505;SDS011;19843;51.040;13.782;2023-04-24T14:20:31;2.10;;;1.10;;
33505;SDS011;19843;51.040;13.782;2023-04-24T14:22:59;1.52;;;1.25;;
33505;SDS011;19843;51.040;13.782;2023-04-24T14:25:26;1.35;;;1.13;;
33505;SDS011;19843;51.040;13.782;2023-04-24T14:27:54;1.08;;;1.00;;
33505;SDS011;19843;51.040;13.782;2023-04-24T14:30:22;4.68;;;1.60;;
33505;SDS011;19843;51.040;13.782;2023-04-24T14:32:50;1.00;;;1.00;;
33505;SDS011;19843;51.040;13.782;2023-04-24T14:35:17;1.08;;;1.00;;
33505;SDS011;19843;51.040;13.782;2023-04-24T14:37:45;1.02;;;1.00;;
33505;SDS011;19843;51.040;13.782;2023-04-24T14:40:14;1.48;;;1.20;;
33505;SDS011;19843;51.040;13.782;2023-04-24T14:42:46;1.67;;;1.08;;
33505;SDS011;19843;51.040;13.782;2023-04-24T14:45:13;1.92;;;1.25;;